Time;durP1;ratioP1;P1;durP2;ratioP2;P2;SDS_P1;SDS_P2;PMS_P1;PMS_P2;Temp;Humidity;BMP_temperature;BMP_pressure;BME280_temperature;BME280_humidity;BME280_pressure;Samples;Min_cycle;Max_cycle;Signal;HPM_P1;HPM_P2
2023/08/26 00:00:57;;;;;;;22.20;15.25;;;16.40;99.90;;;;;;5037937;28;20061;-74
2023/08/26 00:03:23;;;;;;;23.10;15.55;;;16.40;99.90;;;;;;5023408;28;20111;-75
2023/08/26 00:05:50;;;;;;;23.42;15.07;;;16.30;99.90;;;;;;5038364;28;20049;-74
2023/08/26 00:08:16;;;;;;;24.95;14.75;;;16.40;99.90;;;;;;5018705;28;20052;-74
2023/08/26 00:10:42;;;;;;;25.80;15.30;;;16.40;99.90;;;;;;5040534;28;20045;-74
2023/08/26 00:13:09;;;;;;;21.25;14.35;;;16.40;99.90;;;;;;5009333;28;20037;-74
2023/08/26 00:15:35;;;;;;;24.35;14.30;;;16.30;99.90;;;;;;5056533;28;20056;-74
2023/08/26 00:18:03;;;;;;;21.40;14.27;;;16.30;99.90;;;;;;5021316;28;20045;-74
2023/08/26 00:20:29;;;;;;;21.58;14.70;;;16.30;99.90;;;;;;5041175;28;20057;-75
2023/08/26 00:22:55;;;;;;;20.50;14.63;;;16.30;99.90;;;;;;5019885;28;20179;-74
2023/08/26 00:25:21;;;;;;;20.92;14.65;;;16.30;99.90;;;;;;5050444;28;20060;-73
2023/08/26 00:27:47;;;;;;;19.80;14.35;;;16.30;99.90;;;;;;5005670;28;20056;-73
2023/08/26 00:30:13;;;;;;;22.02;14.43;;;16.30;99.90;;;;;;5047144;28;20106;-73
2023/08/26 00:32:40;;;;;;;20.05;13.57;;;16.20;99.90;;;;;;5004538;28;20530;-74
2023/08/26 00:35:06;;;;;;;18.30;13.27;;;16.20;99.90;;;;;;5050660;28;20044;-74
2023/08/26 00:37:32;;;;;;;20.15;13.98;;;16.20;99.90;;;;;;5007755;28;20048;-75
2023/08/26 00:39:58;;;;;;;19.65;13.60;;;16.10;99.90;;;;;;5040230;28;20025;-75
2023/08/26 00:42:24;;;;;;;20.85;14.20;;;16.00;99.90;;;;;;5006225;28;20128;-75
2023/08/26 00:44:50;;;;;;;17.80;13.13;;;16.00;99.90;;;;;;5047834;28;20048;-74
2023/08/26 00:47:17;;;;;;;18.98;13.52;;;15.90;99.90;;;;;;5015215;28;20059;-74
2023/08/26 00:49:43;;;;;;;21.20;14.05;;;15.90;99.90;;;;;;5074594;28;20045;-74
2023/08/26 00:52:10;;;;;;;20.45;14.23;;;15.90;99.90;;;;;;5012003;28;125185;-74
2023/08/26 00:54:36;;;;;;;21.80;14.38;;;15.90;99.90;;;;;;5050199;28;20060;-74
2023/08/26 00:57:04;;;;;;;21.65;14.68;;;15.80;99.90;;;;;;5017804;28;20654;-74
2023/08/26 00:59:31;;;;;;;18.60;13.20;;;15.80;99.90;;;;;;5051688;28;20048;-73
2023/08/26 01:01:57;;;;;;;21.80;13.65;;;15.90;99.90;;;;;;5027425;28;20045;-74
2023/08/26 01:04:24;;;;;;;22.52;14.77;;;15.90;99.90;;;;;;5067796;28;20052;-74
2023/08/26 01:06:50;;;;;;;22.13;13.88;;;15.90;99.90;;;;;;5029445;28;20063;-75
2023/08/26 01:09:17;;;;;;;23.35;13.77;;;15.90;99.90;;;;;;5066245;28;20066;-74
2023/08/26 01:11:58;;;;;;;21.13;12.73;;;15.80;99.90;;;;;;5036396;28;174781;-73
2023/08/26 01:14:31;;;;;;;21.15;14.07;;;15.90;99.90;;;;;;5030594;28;20041;-74
2023/08/26 01:16:59;;;;;;;22.38;13.27;;;15.90;99.90;;;;;;5021025;28;20141;-74
2023/08/26 01:19:36;;;;;;;22.05;12.30;;;15.90;99.90;;;;;;5052362;28;20053;-74
2023/08/26 01:22:05;;;;;;;19.80;12.20;;;15.80;99.90;;;;;;5001969;28;20061;-74
2023/08/26 01:24:32;;;;;;;18.42;11.68;;;15.80;99.90;;;;;;5045992;28;20451;-75
2023/08/26 01:26:58;;;;;;;18.65;12.15;;;15.80;99.90;;;;;;5000144;28;20518;-74
2023/08/26 01:29:25;;;;;;;18.23;11.93;;;15.80;99.90;;;;;;5055442;28;20095;-74
2023/08/26 01:32:35;;;;;;;19.15;12.05;;;15.70;99.90;;;;;;4997444;28;20538;-75
2023/08/26 01:35:05;;;;;;;21.10;12.18;;;15.70;99.90;;;;;;5039874;28;20060;-74
2023/08/26 01:37:32;;;;;;;22.70;11.48;;;15.60;99.90;;;;;;5005524;28;20060;-75
2023/08/26 01:40:05;;;;;;;18.08;11.32;;;15.60;99.90;;;;;;5037131;28;20045;-75
2023/08/26 01:42:32;;;;;;;18.58;11.32;;;15.60;99.90;;;;;;5006755;28;20052;-75
2023/08/26 01:44:58;;;;;;;16.65;11.85;;;15.60;99.90;;;;;;5041243;28;20069;-74
2023/08/26 01:47:25;;;;;;;20.55;11.00;;;15.60;99.90;;;;;;4989526;28;20776;-74
2023/08/26 01:49:51;;;;;;;18.08;10.93;;;15.50;99.90;;;;;;5028509;28;20061;-74
2023/08/26 01:52:17;;;;;;;19.55;10.90;;;15.50;99.90;;;;;;4992551;28;117313;-74
2023/08/26 01:54:48;;;;;;;22.77;10.75;;;15.50;99.90;;;;;;5032494;28;20075;-74
2023/08/26 01:57:15;;;;;;;20.63;10.85;;;15.50;99.90;;;;;;5000758;28;20427;-73
2023/08/26 01:59:42;;;;;;;17.92;10.20;;;15.50;99.90;;;;;;5049700;28;20056;-74
2023/08/26 02:02:08;;;;;;;17.73;11.30;;;15.40;99.90;;;;;;5021790;28;20044;-74
2023/08/26 02:04:37;;;;;;;16.77;10.93;;;15.40;99.90;;;;;;5061708;28;20037;-74
2023/08/26 02:07:03;;;;;;;19.08;10.40;;;15.30;99.90;;;;;;5033693;28;20064;-75
2023/08/26 02:09:29;;;;;;;18.08;10.48;;;15.30;99.90;;;;;;5051523;28;20052;-75
2023/08/26 02:11:55;;;;;;;15.52;10.90;;;15.20;99.90;;;;;;5020275;28;20063;-75
2023/08/26 02:14:21;;;;;;;19.52;11.50;;;15.10;99.90;;;;;;5047802;28;20059;-75
2023/08/26 02:16:48;;;;;;;19.25;11.15;;;15.10;99.90;;;;;;5022463;28;20055;-74
2023/08/26 02:19:14;;;;;;;31.10;11.68;;;15.00;99.90;;;;;;5041553;28;20051;-74
2023/08/26 02:21:40;;;;;;;19.58;11.45;;;15.00;99.90;;;;;;5030067;28;20048;-73
2023/08/26 02:24:07;;;;;;;21.08;12.13;;;14.90;99.90;;;;;;5062926;28;20041;-75
2023/08/26 02:26:33;;;;;;;18.45;10.73;;;14.90;99.90;;;;;;5050837;28;20490;-73
2023/08/26 02:28:59;;;;;;;18.98;10.45;;;14.80;99.90;;;;;;5026896;28;20036;-75
2023/08/26 02:31:25;;;;;;;18.50;10.00;;;14.80;99.90;;;;;;5070676;28;20409;-75
2023/08/26 02:33:51;;;;;;;19.33;11.07;;;14.70;99.90;;;;;;5036867;28;20036;-75
2023/08/26 02:36:17;;;;;;;22.83;10.85;;;14.60;99.90;;;;;;5061008;28;20067;-74
2023/08/26 02:38:44;;;;;;;18.48;10.07;;;14.60;99.90;;;;;;5039663;28;20067;-75
2023/08/26 02:41:10;;;;;;;19.67;10.43;;;14.60;99.90;;;;;;5060763;28;20049;-75
2023/08/26 02:43:36;;;;;;;13.98;9.50;;;14.50;99.90;;;;;;5019247;28;20987;-75
2023/08/26 02:46:02;;;;;;;20.25;11.07;;;14.50;99.90;;;;;;5072221;28;20059;-76
2023/08/26 02:48:29;;;;;;;19.77;11.13;;;14.50;99.90;;;;;;5035288;28;20458;-74
2023/08/26 02:50:59;;;;;;;17.40;10.85;;;14.40;99.90;;;;;;5062401;28;20051;-75
2023/08/26 02:53:26;;;;;;;22.52;10.75;;;14.40;99.90;;;;;;4994013;28;202587;-74
2023/08/26 02:55:53;;;;;;;18.20;11.02;;;14.40;99.90;;;;;;5063202;28;20487;-75
2023/08/26 02:58:20;;;;;;;18.80;11.23;;;14.40;99.90;;;;;;4998291;28;20059;-74
2023/08/26 03:00:47;;;;;;;16.17;10.45;;;14.30;99.90;;;;;;5064709;28;20028;-75
2023/08/26 03:03:14;;;;;;;21.13;9.85;;;14.30;99.90;;;;;;4996189;28;20733;-74
2023/08/26 03:05:44;;;;;;;16.70;10.00;;;14.30;99.90;;;;;;5057916;28;20078;-75
2023/08/26 03:08:10;;;;;;;17.50;10.02;;;14.20;99.90;;;;;;5018439;28;136711;-73
2023/08/26 03:10:36;;;;;;;16.50;9.90;;;14.20;99.90;;;;;;5062034;28;20757;-74
2023/08/26 03:13:02;;;;;;;17.50;10.27;;;14.10;99.90;;;;;;5023323;28;276620;-73
2023/08/26 03:15:29;;;;;;;16.25;9.18;;;14.10;99.90;;;;;;5062425;28;20055;-74
2023/08/26 03:17:58;;;;;;;18.05;9.55;;;14.10;99.90;;;;;;5017720;28;21012;-74
2023/08/26 03:20:25;;;;;;;17.75;10.30;;;14.10;99.90;;;;;;5048952;28;20549;-75
2023/08/26 03:22:51;;;;;;;17.33;10.25;;;14.10;99.90;;;;;;5015093;28;20048;-74
2023/08/26 03:25:17;;;;;;;15.30;9.05;;;14.00;99.90;;;;;;5060034;28;20119;-74
2023/08/26 03:27:43;;;;;;;13.27;8.73;;;14.00;99.90;;;;;;5010710;28;20072;-74
2023/08/26 03:30:10;;;;;;;13.57;9.40;;;14.00;99.90;;;;;;5042790;28;20052;-74
2023/08/26 03:32:36;;;;;;;17.98;9.20;;;14.00;99.90;;;;;;5016162;28;20412;-74
2023/08/26 03:35:02;;;;;;;14.15;8.52;;;14.00;99.90;;;;;;5041685;28;20057;-74
2023/08/26 03:37:29;;;;;;;16.38;9.25;;;14.00;99.90;;;;;;4976061;28;20064;-75
2023/08/26 03:39:55;;;;;;;16.77;8.63;;;14.00;99.90;;;;;;5024435;28;20049;-76
2023/08/26 03:42:21;;;;;;;17.02;8.10;;;14.00;99.90;;;;;;5003109;28;20447;-75
2023/08/26 03:44:47;;;;;;;17.60;8.38;;;13.90;99.90;;;;;;5056621;28;20053;-76
2023/08/26 03:47:13;;;;;;;15.98;7.10;;;13.90;99.90;;;;;;5018122;28;20072;-75
2023/08/26 03:49:39;;;;;;;16.42;8.23;;;13.90;99.90;;;;;;5039958;28;20037;-75
2023/08/26 03:52:06;;;;;;;13.48;8.23;;;13.90;99.90;;;;;;4969399;28;78209;-75
2023/08/26 03:54:32;;;;;;;14.80;7.10;;;13.80;99.90;;;;;;5023034;28;20036;-75
2023/08/26 03:56:58;;;;;;;13.50;7.47;;;13.80;99.90;;;;;;5000443;28;20068;-75
2023/08/26 03:59:28;;;;;;;13.45;7.03;;;13.80;99.90;;;;;;5035073;28;20411;-74
2023/08/26 04:01:54;;;;;;;13.77;7.32;;;13.70;99.90;;;;;;5002997;28;20076;-73
2023/08/26 04:04:24;;;;;;;13.77;6.32;;;13.70;99.90;;;;;;5038862;28;20049;-73
2023/08/26 04:06:50;;;;;;;15.32;7.15;;;13.60;99.90;;;;;;4995150;28;20069;-74
2023/08/26 04:09:16;;;;;;;13.93;6.80;;;13.60;99.90;;;;;;5045370;28;20051;-76
2023/08/26 04:11:43;;;;;;;15.27;7.13;;;13.50;99.90;;;;;;5045416;28;20053;-74
2023/08/26 04:14:09;;;;;;;11.13;6.43;;;13.50;99.90;;;;;;5026089;28;20053;-76
2023/08/26 04:16:35;;;;;;;13.55;7.25;;;13.50;99.90;;;;;;5062725;28;20056;-75
2023/08/26 04:19:01;;;;;;;14.15;7.90;;;13.50;99.90;;;;;;4992092;28;20057;-75
2023/08/26 04:21:28;;;;;;;13.88;7.80;;;13.50;99.90;;;;;;5039261;28;20056;-75
2023/08/26 04:23:54;;;;;;;13.95;8.05;;;13.50;99.90;;;;;;5018412;28;20040;-76
2023/08/26 04:26:20;;;;;;;14.00;8.00;;;13.50;99.90;;;;;;5059291;28;20428;-76
2023/08/26 04:28:46;;;;;;;14.43;8.85;;;13.50;99.90;;;;;;5011210;28;20052;-76
2023/08/26 04:31:12;;;;;;;14.38;8.40;;;13.60;99.90;;;;;;5061634;28;20036;-75
2023/08/26 04:33:38;;;;;;;15.15;7.53;;;13.60;99.90;;;;;;5019863;28;20051;-76
2023/08/26 04:36:04;;;;;;;13.90;8.50;;;13.70;99.90;;;;;;5063838;28;20044;-76
2023/08/26 04:38:31;;;;;;;15.98;8.32;;;13.70;99.90;;;;;;5009306;28;20147;-76
2023/08/26 04:40:58;;;;;;;15.27;7.75;;;13.70;99.90;;;;;;5063466;28;20041;-75
2023/08/26 04:43:27;;;;;;;13.63;7.55;;;13.70;99.90;;;;;;5005283;28;20867;-75
2023/08/26 04:45:55;;;;;;;16.38;8.00;;;13.80;99.90;;;;;;5054552;28;20045;-76
2023/08/26 04:48:21;;;;;;;14.27;7.95;;;13.80;99.90;;;;;;5010883;28;20049;-76
2023/08/26 04:50:52;;;;;;;13.32;7.88;;;13.90;99.90;;;;;;5047524;28;20037;-76
2023/08/26 04:53:18;;;;;;;15.60;7.05;;;14.00;99.90;;;;;;5002666;28;20064;-76
2023/08/26 04:55:50;;;;;;;14.48;6.80;;;14.00;99.90;;;;;;5039489;28;20060;-75
2023/08/26 04:58:17;;;;;;;14.48;6.85;;;14.00;99.90;;;;;;5001716;28;20052;-76
2023/08/26 05:00:44;;;;;;;13.50;6.85;;;14.10;99.90;;;;;;5038172;28;20419;-75
2023/08/26 05:03:10;;;;;;;12.82;6.20;;;14.10;99.90;;;;;;4999882;28;20918;-75
2023/08/26 05:05:40;;;;;;;11.93;6.57;;;14.20;99.90;;;;;;5058105;28;20051;-74
2023/08/26 05:08:07;;;;;;;12.00;6.43;;;14.20;99.90;;;;;;5042833;28;20060;-73
2023/08/26 05:10:35;;;;;;;14.07;6.70;;;14.20;99.90;;;;;;5067877;28;20411;-72
2023/08/26 05:13:01;;;;;;;12.70;6.55;;;14.30;99.90;;;;;;5015208;28;20057;-73
2023/08/26 05:15:28;;;;;;;13.07;6.70;;;14.30;99.90;;;;;;5046482;28;20467;-73
2023/08/26 05:17:55;;;;;;;17.33;6.90;;;14.30;99.90;;;;;;4998110;28;20067;-73
2023/08/26 05:20:21;;;;;;;13.85;6.53;;;14.30;99.90;;;;;;5044948;28;20052;-74
2023/08/26 05:22:47;;;;;;;12.45;6.90;;;14.40;99.90;;;;;;5029372;28;20051;-73
2023/08/26 05:25:13;;;;;;;15.60;7.05;;;14.40;99.90;;;;;;5070486;28;20036;-73
2023/08/26 05:27:39;;;;;;;13.30;6.88;;;14.40;99.90;;;;;;5019474;28;20041;-73
2023/08/26 05:30:06;;;;;;;16.35;7.65;;;14.50;99.90;;;;;;5056482;28;20048;-73
2023/08/26 05:32:32;;;;;;;12.95;7.00;;;14.50;99.90;;;;;;5022725;28;20048;-73
2023/08/26 05:34:58;;;;;;;13.65;7.25;;;14.50;99.90;;;;;;5054096;28;20075;-73
2023/08/26 05:37:24;;;;;;;14.52;7.40;;;14.50;99.90;;;;;;5019057;28;20049;-73
2023/08/26 05:39:51;;;;;;;18.58;8.82;;;14.50;99.90;;;;;;5052921;28;20063;-74
2023/08/26 05:42:17;;;;;;;16.27;8.25;;;14.50;99.90;;;;;;5025760;28;20044;-72
2023/08/26 05:44:43;;;;;;;14.10;7.93;;;14.50;99.90;;;;;;5073725;28;20579;-73
2023/08/26 05:47:09;;;;;;;15.27;9.13;;;14.50;99.90;;;;;;5018113;28;20061;-72
2023/08/26 05:49:35;;;;;;;14.73;7.90;;;14.60;99.90;;;;;;5046437;28;20539;-72
2023/08/26 05:52:01;;;;;;;16.00;8.55;;;14.60;99.90;;;;;;5009568;28;21700;-73
2023/08/26 05:54:27;;;;;;;15.82;8.18;;;14.70;99.90;;;;;;5073916;28;20044;-73
2023/08/26 05:56:53;;;;;;;14.90;8.80;;;14.80;99.90;;;;;;5023502;28;20056;-73
2023/08/26 05:59:19;;;;;;;13.93;8.30;;;14.80;99.90;;;;;;5042112;28;20044;-72
2023/08/26 06:01:46;;;;;;;12.23;7.50;;;14.90;99.90;;;;;;5040846;28;20143;-71
2023/08/26 06:04:12;;;;;;;14.38;6.90;;;14.90;99.90;;;;;;5048736;28;20040;-73
2023/08/26 06:06:38;;;;;;;14.05;7.70;;;14.90;99.90;;;;;;5060364;28;20415;-73
2023/08/26 06:09:04;;;;;;;13.95;7.15;;;14.90;99.90;;;;;;5009257;28;20051;-73
2023/08/26 06:11:31;;;;;;;14.30;7.72;;;14.90;99.90;;;;;;5047595;28;20045;-71
2023/08/26 06:13:58;;;;;;;14.18;7.53;;;14.90;99.90;;;;;;5005566;28;20168;-71
2023/08/26 06:16:24;;;;;;;12.55;7.55;;;15.00;99.90;;;;;;5061121;28;20052;-72
2023/08/26 06:18:50;;;;;;;12.02;6.88;;;15.00;99.90;;;;;;5014954;28;20053;-72
2023/08/26 06:21:16;;;;;;;14.32;7.07;;;15.10;99.90;;;;;;5060923;28;20407;-72
2023/08/26 06:23:42;;;;;;;14.30;7.18;;;15.10;99.90;;;;;;5028472;28;20044;-72
2023/08/26 06:26:08;;;;;;;12.10;7.07;;;15.20;99.90;;;;;;5057577;28;20059;-72
2023/08/26 06:28:34;;;;;;;13.15;7.38;;;15.20;99.90;;;;;;5037524;28;20056;-72
2023/08/26 06:31:01;;;;;;;17.35;7.32;;;15.20;99.90;;;;;;5058347;28;20057;-72
2023/08/26 06:33:27;;;;;;;12.45;6.75;;;15.30;99.90;;;;;;5032206;28;20044;-72
2023/08/26 06:35:53;;;;;;;13.98;7.22;;;15.30;99.90;;;;;;5059469;28;20063;-72
2023/08/26 06:38:19;;;;;;;11.35;6.72;;;15.40;99.90;;;;;;5018034;28;20063;-71
2023/08/26 06:40:58;;;;;;;12.00;7.63;;;15.50;99.90;;;;;;5061751;28;20059;-72
2023/08/26 06:43:24;;;;;;;13.45;7.40;;;15.50;99.90;;;;;;5028805;28;20068;-72
2023/08/26 06:45:50;;;;;;;14.48;7.95;;;15.50;99.90;;;;;;5045049;28;20426;-72
2023/08/26 06:48:17;;;;;;;14.13;8.02;;;15.60;99.90;;;;;;5011844;28;20063;-73
2023/08/26 06:50:48;;;;;;;16.73;8.60;;;15.70;99.90;;;;;;5053446;28;20052;-73
2023/08/26 06:53:20;;;;;;;15.38;9.70;;;15.70;99.90;;;;;;5007620;28;20044;-73
2023/08/26 06:55:50;;;;;;;18.90;9.20;;;15.70;99.90;;;;;;5038971;28;20057;-72
2023/08/26 06:58:17;;;;;;;16.50;9.25;;;15.70;99.90;;;;;;4997839;28;20523;-72
2023/08/26 07:00:43;;;;;;;16.88;9.73;;;15.80;99.90;;;;;;5036777;28;20059;-72
2023/08/26 07:03:10;;;;;;;17.63;10.27;;;15.90;99.90;;;;;;4999550;28;20068;-72
2023/08/26 07:05:38;;;;;;;15.88;10.38;;;15.90;99.90;;;;;;5036704;28;20057;-71
2023/08/26 07:08:04;;;;;;;17.55;11.88;;;15.90;99.90;;;;;;5012855;28;20408;-71
2023/08/26 07:10:30;;;;;;;17.73;11.57;;;15.90;99.90;;;;;;5042670;28;20057;-71
2023/08/26 07:12:56;;;;;;;25.27;13.88;;;16.00;99.90;;;;;;5012995;28;20060;-71
2023/08/26 07:15:23;;;;;;;22.80;15.82;;;16.00;99.90;;;;;;5051320;28;20068;-72
2023/08/26 07:17:49;;;;;;;24.10;17.98;;;16.00;99.90;;;;;;5004855;28;20500;-71
2023/08/26 07:20:15;;;;;;;24.90;16.92;;;16.10;99.90;;;;;;5037905;28;20067;-71
2023/08/26 07:22:41;;;;;;;26.00;17.75;;;16.10;99.90;;;;;;5004659;28;20060;-72
2023/08/26 07:25:08;;;;;;;23.67;15.73;;;16.20;99.90;;;;;;5044803;28;20036;-71
2023/08/26 07:27:35;;;;;;;21.65;16.23;;;16.30;99.90;;;;;;5007374;28;20143;-71
2023/08/26 07:30:01;;;;;;;21.73;16.02;;;16.30;99.90;;;;;;5065996;28;20044;-71
2023/08/26 07:32:27;;;;;;;28.63;16.88;;;16.40;99.90;;;;;;5027318;28;20062;-71
2023/08/26 07:34:53;;;;;;;21.80;16.63;;;16.30;99.90;;;;;;5065387;28;20498;-72
2023/08/26 07:37:19;;;;;;;25.05;18.10;;;16.30;99.90;;;;;;5023711;28;20052;-72
2023/08/26 07:39:45;;;;;;;25.23;18.15;;;16.40;99.90;;;;;;5066485;28;20068;-72
2023/08/26 07:42:11;;;;;;;26.70;17.35;;;16.40;99.90;;;;;;5023959;28;20044;-72
2023/08/26 07:44:37;;;;;;;21.95;16.67;;;16.60;99.90;;;;;;5055837;28;20299;-73
2023/08/26 07:47:04;;;;;;;23.55;16.08;;;16.70;99.90;;;;;;5024741;28;20055;-73
2023/08/26 07:49:30;;;;;;;21.52;15.40;;;16.70;99.90;;;;;;5074394;28;20440;-73
2023/08/26 07:51:56;;;;;;;22.38;15.50;;;16.80;99.90;;;;;;5003670;28;167195;-72
2023/08/26 07:54:22;;;;;;;19.63;13.73;;;16.90;99.90;;;;;;5043626;28;20529;-73
2023/08/26 07:56:48;;;;;;;19.58;13.15;;;17.10;99.90;;;;;;5025671;28;20056;-72
2023/08/26 07:59:14;;;;;;;19.42;12.00;;;17.40;99.90;;;;;;5060097;28;20044;-74
2023/08/26 08:01:40;;;;;;;20.70;12.20;;;17.60;99.90;;;;;;5059217;28;20056;-72
2023/08/26 08:04:06;;;;;;;17.00;10.32;;;17.90;99.90;;;;;;5002946;28;20533;-73
2023/08/26 08:06:32;;;;;;;14.73;9.90;;;18.10;99.90;;;;;;5063430;28;20048;-73
2023/08/26 08:08:58;;;;;;;18.45;10.75;;;18.30;99.90;;;;;;5008211;28;20800;-73
2023/08/26 08:11:24;;;;;;;16.27;9.88;;;18.50;99.90;;;;;;5057415;28;20052;-72
2023/08/26 08:13:51;;;;;;;16.05;10.02;;;18.60;99.90;;;;;;5018340;28;20265;-74
2023/08/26 08:16:17;;;;;;;16.23;9.50;;;18.50;99.90;;;;;;5065487;28;20051;-73
2023/08/26 08:18:43;;;;;;;15.88;9.55;;;18.80;99.90;;;;;;5023915;28;20510;-72
2023/08/26 08:21:09;;;;;;;16.05;9.60;;;18.90;99.90;;;;;;5071865;28;20048;-72
2023/08/26 08:23:36;;;;;;;16.00;8.27;;;19.50;99.90;;;;;;5015073;28;20049;-73
2023/08/26 08:26:03;;;;;;;15.90;9.00;;;19.70;99.90;;;;;;5038858;28;20091;-72
2023/08/26 08:28:29;;;;;;;15.27;8.43;;;19.60;99.90;;;;;;5010740;28;20044;-71
2023/08/26 08:30:55;;;;;;;14.65;8.05;;;19.30;99.90;;;;;;5042158;28;20057;-72
2023/08/26 08:33:21;;;;;;;15.20;8.48;;;19.30;99.90;;;;;;5008871;28;20416;-72
2023/08/26 08:35:47;;;;;;;14.93;8.63;;;19.10;99.90;;;;;;5043881;28;20064;-72
2023/08/26 08:38:13;;;;;;;17.33;9.13;;;18.90;99.90;;;;;;5004408;28;20079;-72
2023/08/26 08:40:41;;;;;;;14.60;9.27;;;19.00;99.90;;;;;;5046757;28;20052;-73
2023/08/26 08:43:08;;;;;;;16.75;9.30;;;19.10;99.90;;;;;;5011667;28;20040;-73
2023/08/26 08:45:35;;;;;;;14.23;9.52;;;19.60;99.90;;;;;;5048880;28;20064;-73
2023/08/26 08:48:02;;;;;;;17.60;9.13;;;19.80;99.90;;;;;;5006266;28;20064;-73
2023/08/26 08:50:30;;;;;;;19.23;8.18;;;19.90;99.90;;;;;;5042362;28;20044;-71
2023/08/26 08:52:58;;;;;;;15.20;8.57;;;20.10;99.90;;;;;;4989617;28;172168;-72
2023/08/26 08:55:25;;;;;;;16.35;8.30;;;20.10;99.90;;;;;;5017560;28;20060;-72
2023/08/26 08:57:53;;;;;;;18.75;8.70;;;19.70;99.90;;;;;;5023338;28;20056;-73
2023/08/26 09:00:23;;;;;;;15.93;8.40;;;19.90;99.90;;;;;;5066235;28;20056;-73
2023/08/26 09:02:52;;;;;;;12.82;7.60;;;19.50;99.90;;;;;;5032200;28;20055;-73
2023/08/26 09:05:19;;;;;;;16.52;8.32;;;19.40;99.90;;;;;;5060035;28;20507;-73
2023/08/26 09:07:48;;;;;;;13.63;7.95;;;19.30;99.90;;;;;;5026313;28;20067;-73
2023/08/26 09:10:16;;;;;;;15.93;8.07;;;19.20;99.90;;;;;;5061157;28;20423;-73
2023/08/26 09:12:42;;;;;;;15.75;8.48;;;19.10;99.90;;;;;;5013287;28;20045;-73
2023/08/26 09:15:08;;;;;;;17.70;8.63;;;19.00;99.90;;;;;;5038816;28;20675;-74
2023/08/26 09:17:35;;;;;;;15.23;7.45;;;19.40;99.90;;;;;;5021383;28;20051;-74
2023/08/26 09:20:02;;;;;;;13.00;7.38;;;20.00;99.90;;;;;;5052438;28;20507;-74
2023/08/26 09:22:30;;;;;;;13.18;7.65;;;20.50;99.90;;;;;;5020479;28;20060;-74
2023/08/26 09:25:00;;;;;;;13.20;6.63;;;20.30;99.90;;;;;;5057188;28;20064;-73
2023/08/26 09:27:27;;;;;;;;;;;20.60;99.90;;;;;;5015208;28;20064;-72
2023/08/26 09:29:54;;;;;;;13.70;7.13;;;21.00;99.90;;;;;;5055168;28;19917;-73
2023/08/26 09:32:37;;;;;;;11.98;6.72;;;20.90;99.90;;;;;;4989558;28;20063;-72
2023/08/26 09:35:10;;;;;;;12.82;6.20;;;21.30;99.90;;;;;;5055541;28;20550;-72
2023/08/26 09:37:37;;;;;;;13.82;5.68;;;22.30;99.90;;;;;;5019342;28;20056;-73
2023/08/26 09:40:04;;;;;;;12.57;5.90;;;22.70;99.90;;;;;;5041080;28;20451;-73
2023/08/26 09:42:30;;;;;;;14.48;5.60;;;22.70;99.90;;;;;;5019274;28;20060;-73
2023/08/26 09:44:57;;;;;;;11.55;5.25;;;23.00;99.90;;;;;;5041071;28;20045;-74
2023/08/26 09:47:29;;;;;;;11.73;4.43;;;22.40;99.90;;;;;;5009584;28;20071;-74
2023/08/26 09:49:55;;;;;;;13.40;4.75;;;21.10;99.90;;;;;;5052198;28;20388;-73
2023/08/26 09:52:21;;;;;;;13.13;4.78;;;20.60;99.90;;;;;;4993783;28;141080;-74
2023/08/26 09:54:49;;;;;;;12.45;5.15;;;20.20;99.90;;;;;;5024778;28;20446;-73
2023/08/26 09:57:15;;;;;;;15.32;5.28;;;20.10;99.90;;;;;;4981904;28;20049;-73
2023/08/26 09:59:41;;;;;;;15.32;5.07;;;19.70;99.90;;;;;;5009880;28;20056;-73
2023/08/26 10:02:21;;;;;;;12.73;5.22;;;19.70;99.90;;;;;;5005817;28;20132;-73
2023/08/26 10:04:51;;;;;;;11.13;4.63;;;19.50;99.90;;;;;;5064011;28;20559;-72
2023/08/26 10:07:17;;;;;;;11.30;4.60;;;19.40;99.90;;;;;;5004240;28;20044;-73
2023/08/26 10:09:57;;;;;;;14.73;4.82;;;19.40;99.90;;;;;;5049463;28;20306;-75
2023/08/26 10:12:33;;;;;;;12.68;4.68;;;19.50;99.90;;;;;;5003153;28;20519;-73
2023/08/26 10:15:02;;;;;;;12.95;4.50;;;19.80;99.90;;;;;;5027105;28;20056;-74
2023/08/26 10:17:31;;;;;;;14.07;3.70;;;20.80;99.90;;;;;;5006064;28;20044;-71
2023/08/26 10:19:57;;;;;;;11.07;3.20;;;20.90;99.90;;;;;;5051227;28;20508;-72
2023/08/26 10:22:25;;;;;;;12.43;3.05;;;20.70;99.90;;;;;;5016815;28;20107;-72
2023/08/26 10:24:51;;;;;;;11.13;2.20;;;20.50;99.90;;;;;;5057363;28;20057;-72
2023/08/26 10:27:18;;;;;;;9.00;2.10;;;20.00;99.90;;;;;;4994746;28;20056;-73
2023/08/26 10:29:45;;;;;;;10.55;2.35;;;19.70;99.90;;;;;;5056698;28;20064;-75
2023/08/26 10:32:18;;;;;;;13.05;3.00;;;19.60;99.90;;;;;;5016825;28;20044;-76
2023/08/26 10:34:59;;;;;;;13.90;3.15;;;19.40;99.90;;;;;;5060827;28;20045;-75
2023/08/26 10:37:26;;;;;;;10.88;2.47;;;19.60;99.90;;;;;;5054153;28;20031;-75
2023/08/26 10:39:54;;;;;;;11.20;2.22;;;19.40;99.90;;;;;;5086592;28;20059;-75
2023/08/26 10:42:21;;;;;;;8.50;1.65;;;19.30;99.90;;;;;;5030854;28;20048;-75
2023/08/26 10:44:55;;;;;;;8.55;2.10;;;19.30;99.90;;;;;;5062091;28;20068;-74
2023/08/26 10:47:44;;;;;;;9.05;2.10;;;19.40;99.90;;;;;;5015307;28;20519;-73
2023/08/26 10:50:21;;;;;;;8.13;2.00;;;19.20;99.90;;;;;;5056330;28;20056;-72
2023/08/26 10:53:19;;;;;;;6.32;1.70;;;19.20;99.90;;;;;;4997879;28;160563;-72
2023/08/26 10:55:50;;;;;;;10.48;2.30;;;19.10;99.90;;;;;;5036285;28;20507;-72
2023/08/26 10:58:23;;;;;;;10.88;2.17;;;19.50;99.90;;;;;;5000713;28;20045;-74
2023/08/26 11:00:52;;;;;;;11.15;2.05;;;20.00;99.90;;;;;;5042252;28;20063;-73
2023/08/26 11:03:20;;;;;;;10.50;2.42;;;20.70;99.90;;;;;;4999420;28;20404;-73
2023/08/26 11:05:59;;;;;;;11.40;2.38;;;20.90;99.90;;;;;;5051365;28;20423;-73
2023/08/26 11:08:25;;;;;;;10.70;2.20;;;21.50;99.90;;;;;;5002529;28;20055;-71
2023/08/26 11:10:51;;;;;;;9.55;2.53;;;22.30;99.90;;;;;;5040276;28;20064;-72
2023/08/26 11:13:21;;;;;;;9.55;2.38;;;22.10;99.90;;;;;;4997719;28;20037;-72
2023/08/26 11:15:49;;;;;;;9.00;1.95;;;22.00;99.90;;;;;;5044012;28;20049;-72
2023/08/26 11:18:16;;;;;;;9.60;2.03;;;22.00;99.90;;;;;;5015087;28;20419;-72
2023/08/26 11:20:44;;;;;;;9.90;2.15;;;21.70;99.90;;;;;;5039863;28;20039;-72
2023/08/26 11:23:10;;;;;;;7.90;1.60;;;21.60;99.90;;;;;;5022277;28;20063;-72
2023/08/26 11:25:37;;;;;;;8.80;1.80;;;21.50;99.90;;;;;;5043988;28;20415;-71
2023/08/26 11:28:03;;;;;;;8.63;1.60;;;21.70;99.90;;;;;;5010997;28;20867;-72
2023/08/26 11:30:30;;;;;;;9.90;1.88;;;21.60;99.90;;;;;;5044549;28;20049;-72
2023/08/26 11:32:59;;;;;;;11.43;1.80;;;22.00;99.90;;;;;;5008609;28;20730;-71
2023/08/26 11:35:25;;;;;;;8.13;1.90;;;21.70;99.90;;;;;;5045719;28;20041;-71
2023/08/26 11:37:51;;;;;;;9.77;1.95;;;21.70;99.60;;;;;;5008944;28;20059;-71
2023/08/26 11:40:17;;;;;;;8.20;1.73;;;22.50;99.90;;;;;;5037727;28;20056;-71
2023/08/26 11:42:44;;;;;;;7.30;1.55;;;23.10;98.70;;;;;;5008309;28;20056;-71
2023/08/26 11:45:11;;;;;;;5.40;1.50;;;22.90;98.10;;;;;;5048724;28;20057;-71
2023/08/26 11:47:39;;;;;;;11.80;1.50;;;22.90;98.90;;;;;;5031052;28;20052;-72
2023/08/26 11:50:06;;;;;;;8.57;1.85;;;23.30;97.30;;;;;;5047418;28;20037;-71
2023/08/26 11:52:34;;;;;;;6.40;1.90;;;23.30;96.40;;;;;;5001063;28;84314;-71
2023/08/26 11:55:02;;;;;;;7.90;2.10;;;22.80;98.00;;;;;;5047628;28;20053;-71
2023/08/26 11:57:33;;;;;;;11.85;2.35;;;22.30;98.40;;;;;;5015494;28;20044;-72
2023/08/26 12:00:12;;;;;;;8.40;1.80;;;22.20;98.30;;;;;;5063852;28;20125;-72
2023/08/26 12:02:44;;;;;;;7.25;1.70;;;21.80;98.20;;;;;;5006252;28;20052;-72
2023/08/26 12:05:11;;;;;;;6.75;1.77;;;21.60;99.10;;;;;;5046665;28;20044;-72
2023/08/26 12:07:46;;;;;;;8.02;1.83;;;21.50;99.00;;;;;;5010174;28;20052;-72
2023/08/26 12:10:14;;;;;;;9.13;1.85;;;21.40;99.10;;;;;;5027142;28;20520;-71
2023/08/26 12:12:41;;;;;;;6.80;2.00;;;21.20;99.50;;;;;;5017173;28;20104;-71
2023/08/26 12:15:18;;;;;;;9.98;2.40;;;21.20;99.90;;;;;;5056248;28;20071;-71
2023/08/26 12:17:45;;;;;;;7.03;2.20;;;21.00;99.50;;;;;;5010854;28;20530;-71
2023/08/26 12:20:31;;;;;;;9.07;2.50;;;20.80;99.50;;;;;;5058266;28;20049;-73
2023/08/26 12:23:07;;;;;;;7.55;2.40;;;20.80;99.90;;;;;;4991807;28;20058;-71
2023/08/26 12:25:38;;;;;;;7.90;2.45;;;20.80;99.90;;;;;;5038836;28;20075;-71
2023/08/26 12:28:24;;;;;;;8.75;2.75;;;20.50;99.90;;;;;;5012889;28;20064;-71
2023/08/26 12:30:51;;;;;;;7.68;2.40;;;20.30;99.90;;;;;;5036297;28;20053;-71
2023/08/26 12:33:17;;;;;;;7.75;2.20;;;20.00;99.90;;;;;;5006044;28;20385;-73
2023/08/26 12:35:45;;;;;;;7.07;2.20;;;19.80;99.90;;;;;;5053620;28;20056;-73
2023/08/26 12:38:12;;;;;;;10.80;2.30;;;19.70;99.90;;;;;;5023426;28;20048;-73